createdAt,value
2023-11-26T00:00:35.149Z,97886.72
2023-11-26T00:03:02.020Z,97887.06
2023-11-26T00:05:29.192Z,97896.09
2023-11-26T00:07:55.712Z,97892.56
2023-11-26T00:10:22.213Z,97901.69
2023-11-26T00:12:48.704Z,97901.94
2023-11-26T00:15:15.228Z,97905.19
2023-11-26T00:17:41.896Z,97902.97
2023-11-26T00:20:08.528Z,97901.38
2023-11-26T00:22:35.172Z,97922.97
2023-11-26T00:25:01.684Z,97916.09
2023-11-26T00:27:28.166Z,97912.44
2023-11-26T00:29:55.476Z,97917.63
2023-11-26T00:32:22.076Z,97912.88
2023-11-26T00:34:49.249Z,97918.13
2023-11-26T00:37:15.941Z,97920.81
2023-11-26T00:39:42.527Z,97931.81
2023-11-26T00:42:08.994Z,97936.28
2023-11-26T00:44:36.531Z,97938.72
2023-11-26T00:47:09.113Z,97953.19
2023-11-26T00:49:35.742Z,97957.66
2023-11-26T00:52:02.193Z,97956.81
2023-11-26T00:54:28.650Z,97964.53
2023-11-26T00:56:55.123Z,97975.16
2023-11-26T00:59:21.624Z,97966.34
2023-11-26T01:01:48.848Z,97973.16
2023-11-26T01:04:15.276Z,97970.06
2023-11-26T01:06:42.747Z,97968.03
2023-11-26T01:09:09.221Z,97982.09
2023-11-26T01:11:36.420Z,97977.91
2023-11-26T01:14:02.982Z,97981.28
2023-11-26T01:16:29.777Z,97973.91
2023-11-26T01:18:56.460Z,97985.91
2023-11-26T01:21:23.293Z,97989.09
2023-11-26T01:23:49.902Z,97982.50
2023-11-26T01:26:17.075Z,97976.81
2023-11-26T01:28:43.550Z,97979.19
2023-11-26T01:31:10.137Z,97981.59
2023-11-26T01:33:36.681Z,97985.69
2023-11-26T01:36:03.230Z,97993.09
2023-11-26T01:38:29.774Z,97990.25
2023-11-26T01:40:56.290Z,98002.69
2023-11-26T01:43:22.724Z,97995.34
2023-11-26T01:45:49.236Z,97990.59
2023-11-26T01:48:15.641Z,97995.28
2023-11-26T01:50:42.455Z,98000.78
2023-11-26T01:53:08.952Z,97992.84
2023-11-26T01:55:35.492Z,98009.13
2023-11-26T01:58:01.989Z,98009.66
2023-11-26T02:00:28.891Z,98003.09
2023-11-26T02:02:55.510Z,98007.06
2023-11-26T02:05:24.660Z,98010.88
2023-11-26T02:07:51.403Z,98012.09
2023-11-26T02:10:17.884Z,98008.28
2023-11-26T02:12:44.321Z,98020.03
2023-11-26T02:15:10.788Z,98037.31
2023-11-26T02:17:37.311Z,98017.59
2023-11-26T02:20:04.039Z,98016.00
2023-11-26T02:22:30.770Z,98019.28
2023-11-26T02:24:57.611Z,98018.25
2023-11-26T02:27:24.217Z,98015.59
2023-11-26T02:29:51.698Z,98018.41
2023-11-26T02:32:18.242Z,98021.00
2023-11-26T02:34:44.728Z,98026.66
2023-11-26T02:37:11.676Z,98036.06
2023-11-26T02:39:39.016Z,98032.25
2023-11-26T02:42:05.928Z,98056.19
2023-11-26T02:44:32.644Z,98039.19
2023-11-26T02:46:59.322Z,98032.44
2023-11-26T02:49:27.236Z,98037.28
2023-11-26T02:51:54.069Z,98047.50
2023-11-26T02:54:20.620Z,98057.75
2023-11-26T02:56:47.177Z,98050.41
2023-11-26T02:59:13.795Z,98058.56
2023-11-26T03:01:40.898Z,98057.00
2023-11-26T03:04:07.461Z,98057.41
2023-11-26T03:06:34.200Z,98047.97
2023-11-26T03:09:03.357Z,98050.63
2023-11-26T03:11:29.850Z,98035.78
2023-11-26T03:13:56.500Z,98043.69
2023-11-26T03:16:23.245Z,98054.50
2023-11-26T03:18:50.095Z,98054.31
2023-11-26T03:21:17.092Z,98043.03
2023-11-26T03:23:43.634Z,98037.59
2023-11-26T03:26:10.251Z,98058.13
2023-11-26T03:28:36.907Z,98057.22
2023-11-26T03:31:03.648Z,98081.69
2023-11-26T03:33:30.181Z,98078.06
2023-11-26T03:35:56.716Z,98078.16
2023-11-26T03:38:23.200Z,98082.03
2023-11-26T03:40:49.742Z,98080.91
2023-11-26T03:43:16.269Z,98074.69
2023-11-26T03:45:42.716Z,98068.03
2023-11-26T03:48:09.611Z,98093.19
2023-11-26T03:50:36.169Z,98102.69
2023-11-26T03:53:02.755Z,98107.16
2023-11-26T03:55:29.252Z,98101.44
2023-11-26T03:57:55.789Z,98100.09
2023-11-26T04:00:22.256Z,98109.94
2023-11-26T04:02:48.949Z,98123.28
2023-11-26T04:05:16.008Z,98118.75
2023-11-26T04:07:42.494Z,98121.75
2023-11-26T04:10:09.304Z,98133.44
2023-11-26T04:12:36.152Z,98127.69
2023-11-26T04:15:05.087Z,98132.38
2023-11-26T04:17:32.496Z,98132.38
2023-11-26T04:20:00.222Z,98134.38
2023-11-26T04:22:27.493Z,98139.34
2023-11-26T04:24:58.247Z,98136.25
2023-11-26T04:27:24.803Z,98145.97
2023-11-26T04:29:51.338Z,98133.69
2023-11-26T04:32:17.962Z,98128.94
2023-11-26T04:34:44.413Z,98131.09
2023-11-26T04:37:10.924Z,98140.00
2023-11-26T04:39:37.710Z,98138.56
2023-11-26T04:42:04.337Z,98136.09
2023-11-26T04:44:30.787Z,98157.28
2023-11-26T04:46:57.410Z,98146.81
2023-11-26T04:49:23.864Z,98151.78
2023-11-26T04:51:50.219Z,98156.84
2023-11-26T04:54:16.632Z,98145.75
2023-11-26T04:56:43.423Z,98161.81
2023-11-26T04:59:09.870Z,98170.66
2023-11-26T05:01:36.648Z,98192.09
2023-11-26T05:04:03.512Z,98176.09
2023-11-26T05:06:30.046Z,98183.94
2023-11-26T05:08:56.538Z,98193.59
2023-11-26T05:11:23.088Z,98195.72
2023-11-26T05:13:49.557Z,98194.13
2023-11-26T05:16:16.070Z,98202.78
2023-11-26T05:18:44.688Z,98224.31
2023-11-26T05:21:11.174Z,98218.75
2023-11-26T05:23:37.653Z,98226.78
2023-11-26T05:26:04.261Z,98229.38
2023-11-26T05:28:30.943Z,98240.81
2023-11-26T05:30:58.066Z,98255.56
2023-11-26T05:33:24.616Z,98250.59
2023-11-26T05:35:53.460Z,98262.78
2023-11-26T05:38:20.630Z,98256.63
2023-11-26T05:40:47.180Z,98280.13
2023-11-26T05:43:13.740Z,98274.66
2023-11-26T05:45:40.317Z,98265.75
2023-11-26T05:48:07.296Z,98272.69
2023-11-26T05:50:34.000Z,98270.63
2023-11-26T05:55:29.391Z,98279.13
2023-11-26T05:57:55.808Z,98300.84
2023-11-26T06:00:22.396Z,98309.25
2023-11-26T06:02:49.054Z,98313.19
2023-11-26T06:05:15.753Z,98320.06
2023-11-26T06:07:42.189Z,98320.31
2023-11-26T06:10:08.611Z,98337.75
2023-11-26T06:12:35.266Z,98339.59
2023-11-26T06:15:02.475Z,98341.09
2023-11-26T06:17:29.145Z,98359.06
2023-11-26T06:19:55.894Z,98356.25
2023-11-26T06:22:22.579Z,98359.03
2023-11-26T06:24:49.245Z,98350.78
2023-11-26T06:27:15.828Z,98345.31
2023-11-26T06:29:43.891Z,98354.88
2023-11-26T06:32:10.750Z,98379.50
2023-11-26T06:34:37.325Z,98386.97
2023-11-26T06:37:04.993Z,98368.13
2023-11-26T06:39:31.686Z,98365.38
2023-11-26T06:41:59.155Z,98374.09
2023-11-26T06:44:25.642Z,98382.44
2023-11-26T06:46:52.230Z,98385.00
2023-11-26T06:49:18.721Z,98376.09
2023-11-26T06:51:45.262Z,98384.66
2023-11-26T06:54:11.992Z,98386.31
2023-11-26T06:56:41.095Z,98403.38
2023-11-26T06:59:07.567Z,98385.19
2023-11-26T07:01:35.142Z,98401.72
2023-11-26T07:04:03.358Z,98405.56
2023-11-26T07:06:29.990Z,98419.78
2023-11-26T07:08:56.581Z,98437.13
2023-11-26T07:11:23.140Z,98435.94
2023-11-26T07:13:49.700Z,98440.50
2023-11-26T07:16:16.114Z,98452.56
2023-11-26T07:18:42.610Z,98451.13
2023-11-26T07:21:09.095Z,98447.69
2023-11-26T07:23:35.887Z,98468.72
2023-11-26T07:26:02.358Z,98443.69
2023-11-26T07:28:28.822Z,98449.88
2023-11-26T07:30:55.293Z,98456.84
2023-11-26T07:33:22.164Z,98455.97
2023-11-26T07:35:51.209Z,98457.91
2023-11-26T07:38:17.855Z,98478.34
2023-11-26T07:40:44.739Z,98457.56
2023-11-26T07:43:11.310Z,98465.84
2023-11-26T07:45:38.924Z,98481.50
2023-11-26T07:48:05.509Z,98476.22
2023-11-26T07:50:32.405Z,98496.69
2023-11-26T07:52:58.872Z,98483.50
2023-11-26T07:55:25.370Z,98480.66
2023-11-26T07:57:51.937Z,98488.09
2023-11-26T08:00:18.520Z,98492.22
2023-11-26T08:02:49.974Z,98491.88
2023-11-26T08:05:16.794Z,98498.50
2023-11-26T08:07:46.860Z,98498.66
2023-11-26T08:10:13.823Z,98504.56
2023-11-26T08:12:41.240Z,98500.75
2023-11-26T08:15:09.833Z,98527.91
2023-11-26T08:17:36.749Z,98516.19
2023-11-26T08:20:03.446Z,98521.97
2023-11-26T08:22:31.016Z,98517.19
2023-11-26T08:24:57.446Z,98513.13
2023-11-26T08:27:23.940Z,98542.06
2023-11-26T08:29:50.549Z,98538.16
2023-11-26T08:32:16.945Z,98529.25
2023-11-26T08:34:43.392Z,98533.34
2023-11-26T08:37:16.049Z,98539.78
2023-11-26T08:39:46.641Z,98544.63
2023-11-26T08:42:13.338Z,98543.44
2023-11-26T08:44:42.563Z,98552.88
2023-11-26T08:47:09.408Z,98538.13
2023-11-26T08:49:35.928Z,98530.81
2023-11-26T08:52:02.404Z,98550.75
2023-11-26T08:54:29.250Z,98547.47
2023-11-26T08:56:56.291Z,98552.16
2023-11-26T08:59:22.837Z,98585.88
2023-11-26T09:01:49.663Z,98565.63
2023-11-26T09:04:16.288Z,98558.09
2023-11-26T09:06:42.995Z,98563.31
2023-11-26T09:09:10.308Z,98582.28
2023-11-26T09:11:37.050Z,98568.88
2023-11-26T09:14:03.527Z,98570.41
2023-11-26T09:16:29.976Z,98563.22
2023-11-26T09:18:56.446Z,98554.16
2023-11-26T09:21:22.977Z,98570.53
2023-11-26T09:23:50.534Z,98557.81
2023-11-26T09:26:19.579Z,98558.56
2023-11-26T09:28:51.328Z,98566.97
2023-11-26T09:31:23.840Z,98571.72
2023-11-26T09:33:50.562Z,98566.94
2023-11-26T09:36:17.584Z,98553.19
2023-11-26T09:38:44.490Z,98558.97
2023-11-26T09:41:11.089Z,98551.69
2023-11-26T09:43:37.550Z,98559.28
2023-11-26T09:46:04.172Z,98576.19
2023-11-26T09:48:33.055Z,98554.44
2023-11-26T09:50:59.472Z,98573.91
2023-11-26T09:53:25.922Z,98567.66
2023-11-26T09:55:52.640Z,98567.25
2023-11-26T09:58:19.112Z,98571.31
2023-11-26T10:00:46.792Z,98577.94
2023-11-26T10:03:15.961Z,98564.00
2023-11-26T10:05:44.028Z,98589.69
2023-11-26T10:08:10.707Z,98567.22
2023-11-26T10:10:37.201Z,98570.63
2023-11-26T10:13:03.989Z,98567.72
2023-11-26T10:15:30.698Z,98556.50
2023-11-26T10:17:57.506Z,98572.06
2023-11-26T10:20:24.196Z,98559.47
2023-11-26T10:22:52.830Z,98554.28
2023-11-26T10:25:21.259Z,98566.97
2023-11-26T10:27:48.124Z,98563.94
2023-11-26T10:30:16.057Z,98547.19
2023-11-26T10:32:43.883Z,98546.41
2023-11-26T10:35:10.872Z,98563.47
2023-11-26T10:37:39.706Z,98547.09
2023-11-26T10:40:06.435Z,98547.97
2023-11-26T10:42:33.668Z,98555.34
2023-11-26T10:45:04.613Z,98552.31
2023-11-26T10:47:32.080Z,98577.13
2023-11-26T10:49:59.427Z,98564.34
2023-11-26T10:52:26.268Z,98569.53
2023-11-26T10:54:56.809Z,98591.84
2023-11-26T10:57:23.591Z,98573.03
2023-11-26T10:59:57.609Z,98563.16
2023-11-26T11:02:32.537Z,98578.69
2023-11-26T11:04:59.184Z,98566.66
2023-11-26T11:07:29.835Z,98558.72
2023-11-26T11:09:56.485Z,98563.59
2023-11-26T11:12:23.981Z,98568.31
2023-11-26T11:14:51.461Z,98560.38
2023-11-26T11:17:20.215Z,98546.75
2023-11-26T11:19:55.291Z,98562.19
2023-11-26T11:22:24.512Z,98550.78
2023-11-26T11:27:31.788Z,98546.91
2023-11-26T11:29:59.221Z,98553.72
2023-11-26T11:32:26.714Z,98577.25
2023-11-26T11:34:54.635Z,98554.78
2023-11-26T11:37:21.951Z,98567.31
2023-11-26T11:39:52.987Z,98568.66
2023-11-26T11:42:20.382Z,98550.06
2023-11-26T11:44:47.104Z,98562.25
2023-11-26T11:47:13.922Z,98558.59
2023-11-26T11:49:40.571Z,98573.41
2023-11-26T11:52:09.962Z,98567.97
2023-11-26T11:54:36.926Z,98553.63
2023-11-26T11:57:03.416Z,98552.88
2023-11-26T11:59:37.791Z,98578.09
2023-11-26T12:02:04.542Z,98553.50
2023-11-26T12:04:31.310Z,98571.94
2023-11-26T12:06:58.347Z,98543.47
2023-11-26T12:09:25.055Z,98547.78
2023-11-26T12:11:51.564Z,98555.06
2023-11-26T12:14:18.393Z,98535.81
2023-11-26T12:16:44.906Z,98537.97
2023-11-26T12:19:12.489Z,98541.38
2023-11-26T12:21:41.409Z,98537.78
2023-11-26T12:24:08.620Z,98536.13
2023-11-26T12:26:35.153Z,98532.75
2023-11-26T12:29:08.741Z,98546.28
2023-11-26T12:31:38.014Z,98542.03
2023-11-26T12:34:05.716Z,98536.19
2023-11-26T12:36:32.385Z,98539.78
2023-11-26T12:39:00.156Z,98541.06
2023-11-26T12:41:27.292Z,98550.16
2023-11-26T12:43:54.172Z,98524.78
2023-11-26T12:46:20.668Z,98532.66
2023-11-26T12:48:47.308Z,98533.28
2023-11-26T12:51:14.113Z,98552.69
2023-11-26T12:53:40.640Z,98578.75
2023-11-26T12:56:07.316Z,98557.72
2023-11-26T12:58:34.525Z,98541.84
2023-11-26T13:01:01.039Z,98548.84
2023-11-26T13:03:27.827Z,98550.53
2023-11-26T13:05:54.348Z,98574.06
2023-11-26T13:08:21.704Z,98549.88
2023-11-26T13:10:50.146Z,98547.28
2023-11-26T13:13:18.093Z,98552.41
2023-11-26T13:15:45.038Z,98567.31
2023-11-26T13:18:13.996Z,98562.97
2023-11-26T13:20:41.123Z,98554.88
2023-11-26T13:23:08.523Z,98561.88
2023-11-26T13:25:35.171Z,98560.19
2023-11-26T13:28:01.777Z,98561.13
2023-11-26T13:30:28.915Z,98560.44
2023-11-26T13:32:55.692Z,98553.56
2023-11-26T13:35:22.662Z,98560.00
2023-11-26T13:37:49.042Z,98562.91
2023-11-26T13:40:15.803Z,98570.59
2023-11-26T13:42:42.291Z,98574.91
2023-11-26T13:45:13.401Z,98571.78
2023-11-26T13:47:49.884Z,98574.69
2023-11-26T13:50:21.206Z,98591.53
2023-11-26T13:52:47.973Z,98594.13
2023-11-26T13:55:14.916Z,98591.16
2023-11-26T13:57:41.453Z,98579.97
2023-11-26T14:00:08.091Z,98601.81
2023-11-26T14:02:37.333Z,98586.03
2023-11-26T14:05:04.724Z,98596.91
2023-11-26T14:07:31.473Z,98596.00
2023-11-26T14:09:58.028Z,98607.97
2023-11-26T14:12:24.794Z,98608.88
2023-11-26T14:14:51.247Z,98625.81
2023-11-26T14:17:17.683Z,98616.28
2023-11-26T14:19:44.115Z,98612.31
2023-11-26T14:22:10.537Z,98628.66
2023-11-26T14:24:37.479Z,98611.97
2023-11-26T14:27:04.176Z,98615.56
2023-11-26T14:29:32.357Z,98620.16
2023-11-26T14:32:01.257Z,98623.44
2023-11-26T14:34:28.075Z,98637.44
2023-11-26T14:36:55.254Z,98626.91
2023-11-26T14:39:22.796Z,98631.84
2023-11-26T14:41:49.710Z,98639.09
2023-11-26T14:44:16.311Z,98630.63
2023-11-26T14:46:43.135Z,98632.38
2023-11-26T14:49:09.661Z,98630.69
2023-11-26T14:51:36.155Z,98636.28
2023-11-26T14:54:02.760Z,98644.63
2023-11-26T14:56:29.198Z,98645.75
2023-11-26T14:58:57.248Z,98646.38
2023-11-26T15:01:23.994Z,98640.16
2023-11-26T15:03:53.991Z,98652.13
2023-11-26T15:06:21.394Z,98653.66
2023-11-26T15:08:50.462Z,98653.59
2023-11-26T15:11:18.039Z,98655.44
2023-11-26T15:13:44.551Z,98663.50
2023-11-26T15:16:13.979Z,98652.19
2023-11-26T15:18:40.489Z,98662.22
2023-11-26T15:21:07.325Z,98660.06
2023-11-26T15:23:34.911Z,98670.50
2023-11-26T15:26:01.352Z,98681.22
2023-11-26T15:28:30.173Z,98680.44
2023-11-26T15:30:56.726Z,98679.28
2023-11-26T15:33:26.856Z,98683.50
2023-11-26T15:35:53.617Z,98695.13
2023-11-26T15:38:20.363Z,98682.38
2023-11-26T15:40:47.476Z,98695.63
2023-11-26T15:43:14.223Z,98702.31
2023-11-26T15:45:40.775Z,98699.41
2023-11-26T15:48:07.298Z,98704.31
2023-11-26T15:50:33.756Z,98701.47
2023-11-26T15:53:00.465Z,98708.81
2023-11-26T15:55:27.202Z,98722.59
2023-11-26T15:57:54.169Z,98719.94
2023-11-26T16:00:20.920Z,98738.38
2023-11-26T16:02:47.623Z,98734.97
2023-11-26T16:05:14.442Z,98738.16
2023-11-26T16:07:43.780Z,98745.81
2023-11-26T16:10:10.523Z,98739.72
2023-11-26T16:12:37.480Z,98740.88
2023-11-26T16:15:04.208Z,98752.59
2023-11-26T16:17:34.492Z,98743.50
2023-11-26T16:20:01.720Z,98745.47
2023-11-26T16:22:28.352Z,98759.34
2023-11-26T16:24:55.093Z,98754.84
2023-11-26T16:27:21.548Z,98758.63
2023-11-26T16:29:48.238Z,98764.00
2023-11-26T16:32:14.864Z,98761.38
2023-11-26T16:34:41.972Z,98770.53
2023-11-26T16:37:09.560Z,98770.56
2023-11-26T16:39:36.204Z,98766.94
2023-11-26T16:42:04.184Z,98767.09
2023-11-26T16:44:32.759Z,98769.63
2023-11-26T16:46:59.324Z,98769.25
2023-11-26T16:49:26.367Z,98768.78
2023-11-26T16:51:53.120Z,98772.78
2023-11-26T16:54:20.482Z,98775.78
2023-11-26T16:56:47.595Z,98781.81
2023-11-26T16:59:14.460Z,98787.41
2023-11-26T17:01:41.542Z,98776.09
2023-11-26T17:04:09.744Z,98787.50
2023-11-26T17:06:37.226Z,98786.25
2023-11-26T17:09:04.022Z,98786.25
2023-11-26T17:11:31.026Z,98788.38
2023-11-26T17:13:58.256Z,98782.91
2023-11-26T17:16:25.658Z,98779.56
2023-11-26T17:19:00.409Z,98776.66
2023-11-26T17:21:27.421Z,98780.81
2023-11-26T17:23:54.464Z,98784.50
2023-11-26T17:26:21.651Z,98775.38
2023-11-26T17:28:49.773Z,98775.97
2023-11-26T17:31:17.116Z,98781.81
2023-11-26T17:33:44.555Z,98785.16
2023-11-26T17:36:11.701Z,98778.88
2023-11-26T17:38:41.247Z,98779.97
2023-11-26T17:41:08.629Z,98783.84
2023-11-26T17:43:37.671Z,98778.56
2023-11-26T17:46:05.970Z,98781.31
2023-11-26T17:48:33.757Z,98783.75
2023-11-26T17:51:02.118Z,98791.63
2023-11-26T17:53:29.470Z,98791.47
2023-11-26T17:55:57.334Z,98796.88
2023-11-26T17:58:30.180Z,98795.63
2023-11-26T18:00:57.823Z,98787.00
2023-11-26T18:03:28.097Z,98790.31
2023-11-26T18:05:55.468Z,98792.66
2023-11-26T18:08:23.353Z,98789.53
2023-11-26T18:10:51.344Z,98786.00
2023-11-26T18:13:19.788Z,98784.34
2023-11-26T18:15:49.405Z,98783.78
2023-11-26T18:18:19.997Z,98793.66
2023-11-26T18:20:47.625Z,98793.81
2023-11-26T18:23:16.565Z,98787.13
2023-11-26T18:25:44.330Z,98786.72
2023-11-26T18:28:13.859Z,98785.31
2023-11-26T18:30:41.513Z,98782.88
2023-11-26T18:33:11.818Z,98786.25
2023-11-26T18:35:39.279Z,98784.03
2023-11-26T18:38:09.071Z,98782.81
2023-11-26T18:40:36.798Z,98780.97
2023-11-26T18:43:04.258Z,98774.31
2023-11-26T18:45:35.342Z,98792.69
2023-11-26T18:48:02.938Z,98776.81
2023-11-26T18:50:30.356Z,98781.41
2023-11-26T18:52:57.837Z,98775.75
2023-11-26T18:55:26.098Z,98781.09
2023-11-26T18:57:53.505Z,98773.19
2023-11-26T19:00:21.672Z,98779.81
2023-11-26T19:02:50.186Z,98773.88
2023-11-26T19:05:18.223Z,98778.63
2023-11-26T19:07:45.687Z,98784.72
2023-11-26T19:10:13.212Z,98774.78
2023-11-26T19:12:40.866Z,98776.66
2023-11-26T19:15:09.448Z,98770.59
2023-11-26T19:17:41.736Z,98780.84
2023-11-26T19:20:10.546Z,98779.97
2023-11-26T19:22:38.643Z,98776.53
2023-11-26T19:25:07.983Z,98768.13
2023-11-26T19:27:35.879Z,98770.25
2023-11-26T19:30:04.993Z,98763.75
2023-11-26T19:32:33.528Z,98764.44
2023-11-26T19:35:05.702Z,98758.41
2023-11-26T19:37:40.505Z,98771.38
2023-11-26T19:40:17.683Z,98763.81
2023-11-26T19:42:45.854Z,98770.00
2023-11-26T19:45:13.524Z,98766.09
2023-11-26T19:47:41.013Z,98766.97
2023-11-26T19:50:08.999Z,98767.63
2023-11-26T19:52:36.590Z,98763.75
2023-11-26T19:55:06.943Z,98769.19
2023-11-26T19:57:35.634Z,98765.94
2023-11-26T20:00:05.407Z,98766.84
2023-11-26T20:02:32.986Z,98760.28
2023-11-26T20:05:00.696Z,98764.91
2023-11-26T20:07:30.508Z,98764.78
2023-11-26T20:10:01.138Z,98761.25
2023-11-26T20:15:02.190Z,98765.66
2023-11-26T20:17:35.723Z,98752.72
2023-11-26T20:20:03.755Z,98753.00
2023-11-26T20:22:34.282Z,98751.03
2023-11-26T20:25:02.180Z,98743.03
2023-11-26T20:27:29.701Z,98734.50
2023-11-26T20:29:57.228Z,98725.22
2023-11-26T20:32:26.118Z,98717.78
2023-11-26T20:34:54.018Z,98720.91
2023-11-26T20:37:21.589Z,98721.34
2023-11-26T20:39:49.021Z,98723.16
2023-11-26T20:42:16.336Z,98721.16
2023-11-26T20:44:43.772Z,98721.81
2023-11-26T20:47:13.994Z,98719.16
2023-11-26T20:49:41.496Z,98716.53
2023-11-26T20:52:08.968Z,98715.91
2023-11-26T20:54:39.394Z,98708.16
2023-11-26T20:57:06.855Z,98709.00
2023-11-26T20:59:36.962Z,98712.25
2023-11-26T21:02:03.660Z,98707.00
2023-11-26T21:04:30.641Z,98701.38
2023-11-26T21:06:57.336Z,98704.59
2023-11-26T21:09:23.860Z,98706.13
2023-11-26T21:11:51.835Z,98699.69
2023-11-26T21:14:18.318Z,98704.25
2023-11-26T21:16:45.144Z,98695.78
2023-11-26T21:19:11.896Z,98694.69
2023-11-26T21:21:38.406Z,98695.28
2023-11-26T21:24:05.961Z,98691.88
2023-11-26T21:26:33.706Z,98686.28
2023-11-26T21:29:00.306Z,98695.69
2023-11-26T21:31:27.508Z,98677.19
2023-11-26T21:33:54.039Z,98679.50
2023-11-26T21:36:22.495Z,98690.91
2023-11-26T21:38:50.906Z,98677.41
2023-11-26T21:41:17.489Z,98659.41
2023-11-26T21:43:45.682Z,98664.56
2023-11-26T21:46:23.239Z,98664.97
2023-11-26T21:48:58.791Z,98658.16
2023-11-26T21:54:07.423Z,98648.88
2023-11-26T21:56:34.168Z,98647.00
2023-11-26T21:59:01.518Z,98660.88
2023-11-26T22:01:43.674Z,98646.44
2023-11-26T22:04:12.306Z,98640.75
2023-11-26T22:06:42.909Z,98640.34
2023-11-26T22:09:10.100Z,98628.94
2023-11-26T22:11:37.807Z,98632.03
2023-11-26T22:14:06.780Z,98620.94
2023-11-26T22:19:29.021Z,98618.56
2023-11-26T22:27:19.689Z,98617.81
2023-11-26T22:29:58.398Z,98621.88
2023-11-26T22:35:06.380Z,98604.94
2023-11-26T22:45:41.797Z,98594.72
2023-11-26T22:48:11.043Z,98600.31
2023-11-26T22:50:47.731Z,98593.81
2023-11-26T22:53:21.478Z,98598.88
2023-11-26T22:55:48.672Z,98582.56
2023-11-26T22:58:15.939Z,98599.41
2023-11-26T23:00:46.922Z,98591.50
2023-11-26T23:03:13.712Z,98577.84
2023-11-26T23:05:41.272Z,98582.28
2023-11-26T23:08:08.196Z,98584.16
2023-11-26T23:10:35.253Z,98579.03
2023-11-26T23:13:02.271Z,98571.91
2023-11-26T23:15:35.735Z,98571.53
2023-11-26T23:18:13.940Z,98564.41
2023-11-26T23:20:44.306Z,98563.81
2023-11-26T23:23:11.730Z,98563.53
2023-11-26T23:28:19.443Z,98552.63
2023-11-26T23:30:46.367Z,98557.88
2023-11-26T23:33:15.977Z,98563.00
2023-11-26T23:35:44.830Z,98565.81
2023-11-26T23:38:13.135Z,98573.09
2023-11-26T23:40:43.795Z,98577.25
2023-11-26T23:43:12.549Z,98569.59
2023-11-26T23:45:40.692Z,98558.94
2023-11-26T23:48:07.802Z,98557.53
2023-11-26T23:50:34.685Z,98557.00
2023-11-26T23:53:04.095Z,98548.22
2023-11-26T23:55:32.615Z,98547.47
2023-11-26T23:57:59.789Z,98551.69
